Time;durP1;ratioP1;P1;durP2;ratioP2;P2;SDS_P1;SDS_P2;PMS_P1;PMS_P2;Temp;Humidity;BMP_temperature;BMP_pressure;BME280_temperature;BME280_humidity;BME280_pressure;Samples;Min_cycle;Max_cycle;Signal;HPM_P1;HPM_P2
2022/01/01 00:02:25;;;;;;;0.80;0.80;;;;;;;-3.72;93.23;97688.25;4897648;29;20052;-91
2022/01/01 00:05:13;;;;;;;0.70;0.70;;;;;;;-3.72;92.83;97684.81;4892678;29;20077;-90
2022/01/01 00:07:40;;;;;;;0.95;0.95;;;;;;;-3.72;92.93;97687.44;4890797;29;20057;-90
2022/01/01 00:10:08;;;;;;;0.90;0.90;;;;;;;-3.73;92.77;97678.69;4892132;29;20060;-91
2022/01/01 00:12:35;;;;;;;0.70;0.70;;;;;;;-3.72;93.01;97680.34;4893736;29;20056;-90
2022/01/01 00:15:04;;;;;;;0.70;0.70;;;;;;;-3.71;93.31;97675.88;4904556;29;20048;-91
2022/01/01 00:17:44;;;;;;;0.70;0.70;;;;;;;-3.65;93.23;97675.13;4894384;29;20448;-90
2022/01/01 00:20:13;;;;;;;0.90;0.90;;;;;;;-3.66;93.13;97673.50;4912453;29;20064;-90
2022/01/01 00:22:42;;;;;;;0.80;0.80;;;;;;;-3.70;93.41;97669.59;4893685;29;20053;-91
2022/01/01 00:25:14;;;;;;;0.70;0.70;;;;;;;-3.65;93.19;97674.31;4909680;29;20079;-92
2022/01/01 00:27:41;;;;;;;0.70;0.70;;;;;;;-3.65;93.41;97675.13;4909267;29;20464;-90
2022/01/01 00:30:09;;;;;;;0.70;0.70;;;;;;;-3.61;93.64;97670.31;4923909;29;20040;-89
2022/01/01 00:32:37;;;;;;;0.80;0.80;;;;;;;-3.56;93.49;97676.66;4926213;29;20052;-90
2022/01/01 00:35:10;;;;;;;0.88;0.88;;;;;;;-3.56;93.40;97668.75;4922095;29;20029;-90
2022/01/01 00:37:37;;;;;;;0.60;0.60;;;;;;;-3.54;93.38;97666.75;4922055;29;20036;-90
2022/01/01 00:40:04;;;;;;;0.82;0.82;;;;;;;-3.51;93.48;97653.16;4905031;29;20088;-90
2022/01/01 00:42:31;;;;;;;0.80;0.80;;;;;;;-3.46;93.25;97649.16;4907539;29;20049;-91
2022/01/01 00:44:58;;;;;;;0.88;0.88;;;;;;;-3.48;93.10;97646.69;4896864;29;20053;-90
2022/01/01 00:47:25;;;;;;;0.77;0.77;;;;;;;-3.51;92.90;97653.16;4876595;29;20151;-90
2022/01/01 00:49:55;;;;;;;0.73;0.73;;;;;;;-3.45;92.93;97651.59;4876911;29;20080;-91
2022/01/01 00:52:30;;;;;;;0.80;0.80;;;;;;;-3.44;92.88;97655.03;4886520;29;20056;-89
2022/01/01 00:54:57;;;;;;;0.98;0.98;;;;;;;-3.41;92.96;97654.69;4923196;29;20420;-89
2022/01/01 00:57:25;;;;;;;0.70;0.70;;;;;;;-3.41;93.10;97641.50;4923816;29;20056;-89
2022/01/01 00:59:52;;;;;;;0.95;0.95;;;;;;;-3.41;92.98;97641.50;4921515;29;20051;-90
2022/01/01 01:02:19;;;;;;;0.60;0.60;;;;;;;-3.39;93.23;97629.75;4923538;29;20116;-90
2022/01/01 01:04:48;;;;;;;0.70;0.70;;;;;;;-3.34;93.39;97637.06;4924851;29;20054;-90
2022/01/01 01:07:15;;;;;;;0.55;0.55;;;;;;;-3.30;93.17;97631.25;4925904;29;20088;-91
2022/01/01 01:09:42;;;;;;;0.73;0.73;;;;;;;-3.33;92.99;97625.53;4929767;29;20056;-90
2022/01/01 01:12:09;;;;;;;0.82;0.82;;;;;;;-3.32;93.38;97625.34;4938777;29;20032;-88
2022/01/01 01:15:03;;;;;;;0.80;0.80;;;;;;;-3.24;93.26;97629.69;4937312;29;20052;-91
2022/01/01 01:17:30;;;;;;;0.80;0.80;;;;;;;-3.26;93.16;97631.69;4938373;29;20060;-92
2022/01/01 01:19:58;;;;;;;0.70;0.70;;;;;;;-3.27;93.18;97630.03;4933295;29;20107;-91
2022/01/01 01:22:26;;;;;;;0.70;0.70;;;;;;;-3.25;93.19;97625.41;4927138;29;20052;-89
2022/01/01 01:25:20;;;;;;;1.00;1.00;;;;;;;-3.24;93.14;97620.94;4924794;29;20060;-89
2022/01/01 01:27:49;;;;;;;0.80;0.80;;;;;;;-3.27;93.16;97614.22;4923970;29;20519;-90
2022/01/01 01:30:18;;;;;;;0.90;0.90;;;;;;;-3.27;92.98;97622.13;4923872;29;20423;-90
2022/01/01 01:32:46;;;;;;;0.80;0.80;;;;;;;-3.28;93.14;97621.31;4907333;29;20072;-91
2022/01/01 01:35:13;;;;;;;0.70;0.70;;;;;;;-3.28;93.17;97612.59;4913382;29;20056;-90
2022/01/01 01:37:41;;;;;;;0.90;0.90;;;;;;;-3.27;93.14;97620.31;4923213;29;20048;-89
2022/01/01 01:40:08;;;;;;;0.70;0.70;;;;;;;-3.25;93.13;97620.13;4922706;29;20059;-89
2022/01/01 01:42:36;;;;;;;0.70;0.70;;;;;;;-3.24;93.30;97620.94;4921622;29;20052;-90
2022/01/01 01:45:28;;;;;;;0.70;0.70;;;;;;;-3.22;93.18;97624.19;4921990;29;20079;-91
2022/01/01 01:47:56;;;;;;;0.70;0.70;;;;;;;-3.25;93.01;97621.94;4926252;29;20078;-91
2022/01/01 01:50:24;;;;;;;0.93;0.93;;;;;;;-3.26;93.07;97615.88;4936518;29;20063;-91
2022/01/01 01:52:56;;;;;;;0.70;0.70;;;;;;;-3.28;93.16;97615.22;4920593;29;20048;-91
2022/01/01 01:55:23;;;;;;;0.60;0.60;;;;;;;-3.25;93.17;97612.19;4933785;29;20142;-91
2022/01/01 01:57:51;;;;;;;0.50;0.50;;;;;;;-3.25;93.29;97606.94;4944855;29;20091;-91
2022/01/01 02:03:05;;;;;;;0.60;0.60;;;;;;;-3.22;93.33;97611.00;4942239;29;20069;-90
2022/01/01 02:05:36;;;;;;;0.77;0.77;;;;;;;-3.23;93.36;97604.91;4948341;29;20055;-89
2022/01/01 02:08:05;;;;;;;0.70;0.70;;;;;;;-3.23;93.09;97610.19;4951605;29;20063;-90
2022/01/01 02:10:33;;;;;;;0.65;0.65;;;;;;;-3.23;93.32;97612.03;4927307;29;20076;-93
2022/01/01 02:13:09;;;;;;;0.75;0.75;;;;;;;-3.18;93.37;97610.44;4941932;29;20558;-91
2022/01/01 02:18:06;;;;;;;0.80;0.80;;;;;;;-3.15;93.41;97611.88;4946409;29;20076;-92
2022/01/01 02:20:33;;;;;;;0.70;0.70;;;;;;;-3.18;93.38;97607.78;4945520;29;20059;-91
2022/01/01 02:23:01;;;;;;;0.70;0.70;;;;;;;-3.15;93.55;97604.78;4942019;29;20111;-91
2022/01/01 02:25:29;;;;;;;0.60;0.60;;;;;;;-3.19;93.45;97607.97;4940547;29;20059;-90
2022/01/01 02:27:56;;;;;;;0.88;0.88;;;;;;;-3.19;93.68;97606.19;4939827;29;20051;-91
2022/01/01 02:30:24;;;;;;;0.70;0.70;;;;;;;-3.19;93.65;97606.19;4941135;29;20521;-89
2022/01/01 02:32:51;;;;;;;0.70;0.70;;;;;;;-3.19;93.89;97598.25;4941598;29;20048;-90
2022/01/01 02:35:23;;;;;;;0.90;0.90;;;;;;;-3.15;93.92;97606.59;4939555;29;20063;-91
2022/01/01 02:37:50;;;;;;;0.75;0.75;;;;;;;-3.16;93.98;97605.78;4942571;29;20048;-91
2022/01/01 02:40:17;;;;;;;0.80;0.80;;;;;;;-3.15;93.82;97602.13;4940367;29;20134;-91
2022/01/01 02:42:44;;;;;;;0.80;0.80;;;;;;;-3.14;94.13;97603.78;4939193;29;20047;-91
2022/01/01 02:45:13;;;;;;;0.80;0.80;;;;;;;-3.15;94.06;97604.78;4940311;29;20055;-90
2022/01/01 02:47:42;;;;;;;0.73;0.73;;;;;;;-3.14;94.31;97609.06;4950088;29;20035;-90
2022/01/01 02:50:10;;;;;;;0.75;0.75;;;;;;;-3.11;94.29;97600.75;4919251;29;20052;-91
2022/01/01 02:52:38;;;;;;;0.80;0.80;;;;;;;-3.14;94.37;97601.16;4909238;29;20138;-92
2022/01/01 02:55:06;;;;;;;0.68;0.68;;;;;;;-3.09;94.52;97598.75;4940527;29;20138;-92
2022/01/01 02:57:34;;;;;;;0.60;0.60;;;;;;;-3.07;94.66;97601.19;4941390;29;20460;-91
2022/01/01 03:00:01;;;;;;;0.68;0.68;;;;;;;-3.03;94.56;97598.97;4940285;29;20062;-91
2022/01/01 03:02:29;;;;;;;0.63;0.63;;;;;;;-3.03;94.52;97599.78;4939451;29;20534;-89
2022/01/01 03:04:56;;;;;;;0.80;0.80;;;;;;;-3.03;94.78;97597.16;4939048;29;20061;-91
2022/01/01 03:07:24;;;;;;;0.73;0.73;;;;;;;-3.01;94.76;97592.50;4939508;29;20104;-91
2022/01/01 03:09:52;;;;;;;0.90;0.90;;;;;;;-3.00;94.84;97594.13;4938375;29;20103;-89
2022/01/01 03:12:19;;;;;;;0.75;0.75;;;;;;;-2.99;95.00;97590.47;4940163;29;20151;-90
2022/01/01 03:14:51;;;;;;;0.90;0.90;;;;;;;-2.96;94.76;97589.25;4939785;29;20055;-91
2022/01/01 03:17:18;;;;;;;0.80;0.80;;;;;;;-2.95;94.70;97590.91;4938791;29;20526;-90
2022/01/01 03:19:45;;;;;;;0.75;0.75;;;;;;;-2.94;94.65;97589.88;4940101;29;20475;-91
2022/01/01 03:22:12;;;;;;;0.68;0.68;;;;;;;-2.91;94.54;97586.84;4942613;29;20047;-91
2022/01/01 03:24:39;;;;;;;0.75;0.75;;;;;;;-2.94;94.64;97580.13;4941913;29;20055;-90
2022/01/01 03:27:06;;;;;;;0.73;0.73;;;;;;;-2.92;94.64;97590.53;4942663;29;20051;-90
2022/01/01 03:29:34;;;;;;;0.70;0.70;;;;;;;-2.96;94.71;97582.19;4910362;29;20087;-90
2022/01/01 03:32:01;;;;;;;0.85;0.85;;;;;;;-2.89;94.90;97584.84;4942045;29;20067;-91
2022/01/01 03:34:28;;;;;;;0.80;0.80;;;;;;;-2.89;94.75;97574.28;4940680;29;20059;-91
2022/01/01 03:36:56;;;;;;;0.90;0.90;;;;;;;-2.92;94.67;97574.69;4940570;29;20051;-89
2022/01/01 03:39:23;;;;;;;0.80;0.80;;;;;;;-2.86;95.13;97572.09;4940687;29;20132;-91
2022/01/01 03:41:50;;;;;;;0.75;0.75;;;;;;;-2.85;94.82;97573.72;4921598;29;20107;-91
2022/01/01 03:44:17;;;;;;;0.75;0.75;;;;;;;-2.86;94.92;97576.53;4920342;29;20074;-90
2022/01/01 03:46:45;;;;;;;0.75;0.75;;;;;;;-2.84;94.80;97564.81;4937615;29;20056;-89
2022/01/01 03:49:12;;;;;;;0.77;0.77;;;;;;;-2.81;94.86;97571.53;4937951;29;20542;-90
2022/01/01 03:51:41;;;;;;;0.80;0.80;;;;;;;-2.79;94.69;97573.94;4938868;29;20058;-91
2022/01/01 03:54:14;;;;;;;0.80;0.80;;;;;;;-2.79;94.68;97569.47;4939317;29;20146;-91
2022/01/01 03:56:41;;;;;;;0.80;0.80;;;;;;;-2.78;94.55;97565.03;4938676;29;20048;-91
2022/01/01 03:59:08;;;;;;;0.80;0.80;;;;;;;-2.78;94.78;97572.94;4933050;29;20106;-91
2022/01/01 04:01:36;;;;;;;0.70;0.70;;;;;;;-2.85;94.88;97572.91;4909428;29;20535;-91
2022/01/01 04:04:03;;;;;;;0.80;0.80;;;;;;;-2.79;94.87;97577.41;4919066;29;20055;-90
2022/01/01 04:06:30;;;;;;;0.80;0.80;;;;;;;-2.75;94.85;97569.91;4906683;29;20056;-93
2022/01/01 04:08:57;;;;;;;0.80;0.80;;;;;;;-2.72;94.72;97569.53;4927844;29;20431;-92
2022/01/01 04:11:25;;;;;;;0.90;0.90;;;;;;;-2.73;94.49;97571.34;4939422;29;20482;-91
2022/01/01 04:13:52;;;;;;;0.52;0.52;;;;;;;-2.73;94.59;97575.81;4938755;29;20058;-90
2022/01/01 04:16:20;;;;;;;0.75;0.75;;;;;;;-2.71;94.53;97577.25;4938193;29;20067;-89
2022/01/01 04:18:50;;;;;;;0.70;0.70;;;;;;;-2.72;94.54;97575.63;4938295;29;20052;-91
2022/01/01 04:21:17;;;;;;;0.75;0.75;;;;;;;-2.74;94.49;97572.34;4938323;29;20054;-90
2022/01/01 04:23:45;;;;;;;0.80;0.80;;;;;;;-2.71;94.78;97579.91;4954999;29;20068;-91
2022/01/01 04:26:12;;;;;;;0.85;0.85;;;;;;;-2.71;94.67;97579.06;4937416;29;20044;-90
2022/01/01 04:28:41;;;;;;;0.70;0.70;;;;;;;-2.72;94.91;97582.72;4939310;29;20052;-92
2022/01/01 04:31:08;;;;;;;0.90;0.90;;;;;;;-2.69;95.05;97584.97;4940614;29;20071;-90
2022/01/01 04:33:35;;;;;;;0.80;0.80;;;;;;;-2.74;94.92;97582.09;4940853;29;20052;-91
2022/01/01 04:36:03;;;;;;;0.90;0.90;;;;;;;-2.77;95.10;97585.94;4941391;29;20052;-91
2022/01/01 04:38:41;;;;;;;0.80;0.80;;;;;;;-2.73;95.16;97589.84;4941476;29;20059;-89
2022/01/01 04:41:13;;;;;;;0.82;0.82;;;;;;;-2.74;95.14;97590.03;4927518;29;20056;-90
2022/01/01 04:43:48;;;;;;;0.90;0.90;;;;;;;-2.75;95.32;97586.56;4928066;29;20080;-91
2022/01/01 04:46:16;;;;;;;0.80;0.80;;;;;;;-2.72;95.46;97588.00;4925417;29;20071;-90
2022/01/01 04:48:43;;;;;;;0.70;0.70;;;;;;;-2.71;95.24;97587.81;4939367;29;20056;-90
2022/01/01 04:51:12;;;;;;;0.70;0.70;;;;;;;-2.67;95.29;97588.25;4941405;29;20118;-90
2022/01/01 04:53:40;;;;;;;0.80;0.80;;;;;;;-2.66;95.05;97593.34;4941513;29;20131;-89
2022/01/01 04:56:08;;;;;;;1.00;1.00;;;;;;;-2.64;95.11;97588.66;4940017;29;20071;-89
2022/01/01 04:58:36;;;;;;;0.90;0.90;;;;;;;-2.64;95.43;97586.00;4938544;29;20441;-90
2022/01/01 05:01:03;;;;;;;0.77;0.77;;;;;;;-2.62;95.00;97586.63;4921128;29;20223;-92
2022/01/01 05:03:57;;;;;;;0.70;0.70;;;;;;;-2.66;95.09;97588.06;4922026;29;20052;-89
2022/01/01 05:06:24;;;;;;;0.80;0.80;;;;;;;-2.68;94.98;97590.06;4904382;29;20052;-90
2022/01/01 05:08:51;;;;;;;0.90;0.90;;;;;;;-2.64;95.01;97591.28;4904698;29;20052;-89
2022/01/01 05:11:18;;;;;;;0.77;0.77;;;;;;;-2.62;94.83;97591.13;4926802;29;20143;-87
2022/01/01 05:13:45;;;;;;;0.80;0.80;;;;;;;-2.65;94.98;97586.22;4936322;29;20131;-86
2022/01/01 05:16:16;;;;;;;0.60;0.60;;;;;;;-2.58;94.93;97594.16;4914812;29;20047;-85
2022/01/01 05:18:44;;;;;;;0.80;0.80;;;;;;;-2.58;94.62;97594.16;4930101;29;20507;-85
2022/01/01 05:21:12;;;;;;;0.75;0.75;;;;;;;-2.53;94.71;97603.16;4921940;29;20152;-91
2022/01/01 05:23:39;;;;;;;0.90;0.90;;;;;;;-2.55;94.73;97599.09;4930446;29;20569;-90
2022/01/01 05:26:06;;;;;;;0.70;0.70;;;;;;;-2.56;94.46;97610.63;4907596;29;20056;-91
2022/01/01 05:28:33;;;;;;;0.60;0.60;;;;;;;-2.59;94.64;97609.22;4930402;29;20052;-92
2022/01/01 05:31:00;;;;;;;0.80;0.80;;;;;;;-2.54;94.44;97613.91;4943712;29;20157;-92
2022/01/01 05:33:27;;;;;;;0.75;0.75;;;;;;;-2.51;94.59;97602.94;4926062;29;20059;-90
2022/01/01 05:35:56;;;;;;;0.80;0.80;;;;;;;-2.52;94.38;97609.25;4940256;29;20578;-89
2022/01/01 05:38:23;;;;;;;0.80;0.80;;;;;;;-2.56;94.38;97610.63;4908605;29;20052;-90
2022/01/01 05:40:52;;;;;;;0.80;0.80;;;;;;;-2.56;94.17;97611.44;4939612;29;20143;-89
2022/01/01 05:43:19;;;;;;;0.82;0.82;;;;;;;-2.50;94.27;97617.81;4942242;29;20529;-91
2022/01/01 05:45:46;;;;;;;0.90;0.90;;;;;;;-2.54;94.04;97613.91;4941771;29;20075;-91
2022/01/01 05:48:14;;;;;;;0.90;0.90;;;;;;;-2.55;94.01;97612.28;4941171;29;20174;-90
2022/01/01 05:50:41;;;;;;;0.73;0.73;;;;;;;-2.54;93.80;97619.19;4947101;29;20048;-90
2022/01/01 05:53:08;;;;;;;0.70;0.70;;;;;;;-2.52;94.21;97619.81;4927255;29;20459;-88
2022/01/01 05:55:35;;;;;;;0.85;0.85;;;;;;;-2.52;94.14;97627.75;4933583;29;20420;-86
2022/01/01 05:58:05;;;;;;;0.82;0.82;;;;;;;-2.51;94.00;97630.19;4950816;29;20039;-93
2022/01/01 06:00:33;;;;;;;0.80;0.80;;;;;;;-2.48;93.97;97632.44;4951663;29;20035;-88
2022/01/01 06:03:01;;;;;;;0.75;0.75;;;;;;;-2.46;93.73;97629.59;4938259;29;20056;-91
2022/01/01 06:05:29;;;;;;;0.80;0.80;;;;;;;-2.51;93.61;97630.19;4937684;29;20511;-88
2022/01/01 06:07:58;;;;;;;0.80;0.80;;;;;;;-2.55;93.74;97623.66;4946855;29;20181;-92
2022/01/01 06:10:25;;;;;;;0.70;0.70;;;;;;;-2.51;93.68;97624.88;4940566;29;20067;-91
2022/01/01 06:12:53;;;;;;;0.75;0.75;;;;;;;-2.48;93.29;97623.69;4942770;29;20071;-89
2022/01/01 06:15:21;;;;;;;0.80;0.80;;;;;;;-2.47;93.30;97625.34;4908747;29;20483;-89
2022/01/01 06:17:48;;;;;;;0.70;0.70;;;;;;;-2.45;93.15;97620.69;4906440;29;20400;-87
2022/01/01 06:20:16;;;;;;;0.80;0.80;;;;;;;-2.43;93.10;97627.41;4925551;29;20084;-87
2022/01/01 06:23:03;;;;;;;0.70;0.70;;;;;;;-2.47;92.96;97618.22;4911408;29;20048;-90
2022/01/01 06:25:30;;;;;;;0.70;0.70;;;;;;;-2.52;93.07;97619.81;4933241;29;20061;-90
2022/01/01 06:27:57;;;;;;;0.85;0.85;;;;;;;-2.49;93.12;97624.72;4932733;29;20035;-87
2022/01/01 06:30:24;;;;;;;0.82;0.82;;;;;;;-2.46;93.09;97626.94;4942054;29;20020;-85
2022/01/01 06:32:52;;;;;;;0.82;0.82;;;;;;;-2.47;92.91;97626.16;4942684;29;20054;-89
2022/01/01 06:39:31;;;;;;;0.70;0.70;;;;;;;-2.49;92.46;97628.16;4953933;29;20051;-90
2022/01/01 06:41:58;;;;;;;0.80;0.80;;;;;;;-2.45;92.72;97631.25;4937046;29;20120;-89
2022/01/01 06:44:50;;;;;;;0.75;0.75;;;;;;;-2.49;92.66;97630.00;4929796;29;20056;-91
2022/01/01 06:47:17;;;;;;;0.75;0.75;;;;;;;-2.54;92.77;97627.94;4931834;29;20192;-89
2022/01/01 06:49:45;;;;;;;0.80;0.80;;;;;;;-2.55;92.99;97628.13;4926249;29;20056;-85
2022/01/01 06:52:12;;;;;;;0.90;0.90;;;;;;;-2.48;93.07;97637.72;4926857;29;20567;-93
2022/01/01 06:54:39;;;;;;;0.90;0.90;;;;;;;-2.45;93.13;97634.69;4926130;29;20083;-92
2022/01/01 06:57:06;;;;;;;0.80;0.80;;;;;;;-2.44;93.07;97633.66;4926357;29;20060;-87
2022/01/01 06:59:33;;;;;;;0.90;0.90;;;;;;;-2.46;92.80;97637.53;4933922;29;20048;-89
2022/01/01 07:02:00;;;;;;;0.70;0.70;;;;;;;-2.43;92.92;97631.84;4930250;29;20048;-93
2022/01/01 07:04:28;;;;;;;0.80;0.80;;;;;;;-2.45;92.88;97636.53;4927660;29;20454;-90
2022/01/01 07:06:55;;;;;;;0.82;0.82;;;;;;;-2.44;93.05;97632.88;4924139;29;20063;-91
2022/01/01 07:09:22;;;;;;;0.85;0.85;;;;;;;-2.43;92.69;97629.19;4930924;29;20052;-93
2022/01/01 07:11:57;;;;;;;0.75;0.75;;;;;;;-2.36;92.67;97632.69;4808685;29;10001208;-90
2022/01/01 07:14:29;;;;;;;0.90;0.90;;;;;;;-2.33;92.87;97632.34;4906873;29;20387;-92
2022/01/01 07:17:01;;;;;;;0.90;0.90;;;;;;;-2.27;92.60;97625.44;4926294;29;20082;-89
2022/01/01 07:19:36;;;;;;;0.90;0.90;;;;;;;-2.27;92.80;97618.31;4929222;29;20056;-89
2022/01/01 07:22:04;;;;;;;0.80;0.80;;;;;;;-2.24;92.45;97625.84;4918534;29;20051;-87
2022/01/01 07:24:34;;;;;;;0.70;0.70;;;;;;;-2.24;92.43;97625.84;4939456;29;20063;-90
2022/01/01 07:27:04;;;;;;;0.77;0.77;;;;;;;-2.19;92.27;97627.91;4933824;29;20590;-86
2022/01/01 07:29:32;;;;;;;0.80;0.80;;;;;;;-2.19;92.31;97631.38;4923615;29;20051;-88
2022/01/01 07:31:59;;;;;;;0.80;0.80;;;;;;;-2.19;92.07;97627.91;4933120;29;20100;-88
2022/01/01 07:34:29;;;;;;;0.98;0.98;;;;;;;-2.16;92.03;97632.00;4925104;29;20072;-87
2022/01/01 07:36:56;;;;;;;0.80;0.80;;;;;;;-2.13;91.90;97626.31;4941920;29;20055;-91
2022/01/01 07:39:23;;;;;;;0.90;0.90;;;;;;;-2.08;91.51;97631.81;4946201;29;20123;-85
2022/01/01 07:41:51;;;;;;;0.70;0.70;;;;;;;-2.07;91.45;97636.09;4928889;29;20055;-88
2022/01/01 07:44:26;;;;;;;0.90;0.90;;;;;;;-2.04;91.53;97630.41;4930988;29;20091;-86
2022/01/01 07:46:56;;;;;;;0.70;0.70;;;;;;;-2.05;91.22;97634.06;4930398;29;20064;-86
2022/01/01 07:49:23;;;;;;;0.98;0.98;;;;;;;-2.01;90.93;97637.94;4924192;29;20064;-87
2022/01/01 07:51:50;;;;;;;0.80;0.80;;;;;;;-2.03;90.84;97642.59;4929631;29;20539;-86
2022/01/01 07:54:22;;;;;;;0.90;0.90;;;;;;;-2.04;90.77;97635.69;4925892;29;20092;-89
2022/01/01 07:56:50;;;;;;;0.85;0.85;;;;;;;-2.05;90.66;97649.91;4942248;29;20059;-89
2022/01/01 07:59:17;;;;;;;0.90;0.90;;;;;;;-2.02;90.37;97639.78;4940806;29;20574;-86
2022/01/01 08:01:44;;;;;;;0.80;0.80;;;;;;;-2.02;90.49;97639.78;4928008;29;20080;-89
2022/01/01 08:04:13;;;;;;;0.90;0.90;;;;;;;-2.01;90.30;97651.97;4910128;29;20047;-91
2022/01/01 08:06:40;;;;;;;0.85;0.85;;;;;;;-2.00;90.20;97642.22;4946756;29;20047;-89
2022/01/01 08:09:07;;;;;;;0.73;0.73;;;;;;;-1.94;90.33;97657.31;4930143;29;20083;-90
2022/01/01 08:11:34;;;;;;;0.80;0.80;;;;;;;-1.91;89.87;97645.50;4947753;29;20102;-89
2022/01/01 08:14:01;;;;;;;0.80;0.80;;;;;;;-1.87;89.88;97644.94;4945531;29;20087;-91
2022/01/01 08:16:28;;;;;;;0.95;0.95;;;;;;;-1.89;89.66;97654.88;4928634;29;20051;-90
2022/01/01 08:18:55;;;;;;;0.75;0.75;;;;;;;-1.94;89.61;97652.00;4957005;29;20055;-91
2022/01/01 08:21:23;;;;;;;0.80;0.80;;;;;;;-1.94;89.45;97657.31;4957353;29;20184;-91
2022/01/01 08:23:50;;;;;;;0.80;0.80;;;;;;;-1.95;89.53;97650.38;4938089;29;20047;-91
2022/01/01 08:26:17;;;;;;;0.98;0.98;;;;;;;-1.89;89.45;97654.88;4961187;29;20072;-91
2022/01/01 08:28:44;;;;;;;0.93;0.93;;;;;;;-1.86;89.46;97659.75;4960798;29;20083;-91
2022/01/01 08:31:11;;;;;;;0.75;0.75;;;;;;;-1.83;89.04;97655.91;4960898;29;20024;-91
2022/01/01 08:33:39;;;;;;;0.90;0.90;;;;;;;-1.82;89.09;97660.19;4954570;29;20055;-92
2022/01/01 08:36:06;;;;;;;1.00;1.00;;;;;;;-1.79;88.81;97659.81;4943972;29;20047;-91
2022/01/01 08:38:34;;;;;;;0.88;0.88;;;;;;;-1.77;89.05;97653.28;4948441;29;20087;-93
2022/01/01 08:41:01;;;;;;;0.73;0.73;;;;;;;-1.78;89.13;97659.59;4953541;29;20054;-91
2022/01/01 08:43:28;;;;;;;0.90;0.90;;;;;;;-1.78;89.07;97656.94;4952222;29;20080;-90
2022/01/01 08:46:16;;;;;;;0.80;0.80;;;;;;;-1.77;88.83;97663.06;4956861;29;20107;-92
2022/01/01 08:48:43;;;;;;;0.90;0.90;;;;;;;-1.80;88.91;97664.28;4944792;29;20063;-91
2022/01/01 08:51:21;;;;;;;0.80;0.80;;;;;;;-1.69;88.69;97659.44;4943484;29;20047;-91
2022/01/01 08:53:51;;;;;;;0.80;0.80;;;;;;;-1.71;89.02;97650.88;4921715;29;20043;-90
2022/01/01 08:56:24;;;;;;;0.90;0.90;;;;;;;-1.71;88.77;97650.88;4951693;29;20075;-91
2022/01/01 08:58:51;;;;;;;0.80;0.80;;;;;;;-1.68;88.93;97650.47;4932215;29;20119;-91
2022/01/01 09:01:19;;;;;;;0.90;0.90;;;;;;;-1.63;88.71;97640.91;4930503;29;20522;-91
2022/01/01 09:03:47;;;;;;;0.90;0.90;;;;;;;-1.61;88.27;97651.31;4921129;29;20059;-91
2022/01/01 09:06:14;;;;;;;0.80;0.80;;;;;;;-1.64;88.27;97662.28;4934812;29;20052;-91
2022/01/01 09:08:42;;;;;;;1.00;1.00;;;;;;;-1.64;88.18;97652.53;4945848;29;20087;-91
2022/01/01 09:11:12;;;;;;;0.80;0.80;;;;;;;-1.56;88.28;97646.22;4956376;29;20078;-91
2022/01/01 09:14:06;;;;;;;0.90;0.90;;;;;;;-1.45;87.90;97645.63;4948195;29;20047;-91
2022/01/01 09:16:33;;;;;;;0.90;0.90;;;;;;;-1.50;87.76;97648.06;4949880;29;20061;-93
2022/01/01 09:19:00;;;;;;;0.90;0.90;;;;;;;-1.46;87.65;97641.38;4955109;29;20035;-89
2022/01/01 09:21:28;;;;;;;0.88;0.88;;;;;;;-1.45;87.36;97647.47;4929790;29;20050;-92
2022/01/01 09:23:57;;;;;;;0.90;0.90;;;;;;;-1.51;87.51;97651.72;4946870;29;20052;-92
2022/01/01 09:26:25;;;;;;;0.82;0.82;;;;;;;-1.46;87.31;97641.38;4947739;29;20063;-92
2022/01/01 09:28:52;;;;;;;0.90;0.90;;;;;;;-1.39;87.31;97646.69;4950286;29;20051;-93
2022/01/01 09:31:19;;;;;;;0.80;0.80;;;;;;;-1.34;86.91;97641.59;4938914;29;20055;-90
2022/01/01 09:33:46;;;;;;;0.90;0.90;;;;;;;-1.31;86.72;97641.19;4935604;29;20056;-91
2022/01/01 09:36:17;;;;;;;0.98;0.98;;;;;;;-1.31;86.46;97643.84;4953609;29;20040;-91
2022/01/01 09:38:45;;;;;;;0.80;0.80;;;;;;;-1.36;85.42;97647.06;4954642;29;20075;-91
2022/01/01 09:41:15;;;;;;;0.80;0.80;;;;;;;-1.37;85.37;97644.63;4955688;29;20115;-91
2022/01/01 09:43:48;;;;;;;0.88;0.88;;;;;;;-1.34;85.34;97639.75;4904456;29;20055;-90
2022/01/01 09:46:15;;;;;;;0.80;0.80;;;;;;;-1.29;85.17;97644.44;4942569;29;20048;-90
2022/01/01 09:48:55;;;;;;;0.90;0.90;;;;;;;-1.23;85.33;97632.22;4951118;29;20056;-90
2022/01/01 09:51:22;;;;;;;0.85;0.85;;;;;;;-1.20;85.33;97629.19;4949769;29;20166;-92
2022/01/01 09:54:15;;;;;;;0.82;0.82;;;;;;;-1.20;84.61;97631.81;4946771;29;20079;-92
2022/01/01 09:56:42;;;;;;;0.90;0.90;;;;;;;-1.23;84.67;97637.53;4948111;29;20123;-92
2022/01/01 09:59:12;;;;;;;0.85;0.85;;;;;;;-1.23;84.33;97632.22;4927540;29;20075;-91
2022/01/01 10:01:45;;;;;;;0.80;0.80;;;;;;;-1.23;83.72;97637.53;4947051;29;20055;-92
2022/01/01 10:04:14;;;;;;;1.00;1.00;;;;;;;-1.32;83.03;97624.50;4926605;29;20047;-94
2022/01/01 10:06:43;;;;;;;0.80;0.80;;;;;;;-1.36;82.52;97630.38;4949123;29;20047;-92
2022/01/01 10:09:16;;;;;;;0.80;0.80;;;;;;;-1.46;81.33;97620.19;4935556;29;20095;-92
2022/01/01 10:11:44;;;;;;;0.85;0.85;;;;;;;-1.49;81.12;97619.75;4937089;29;20048;-91
2022/01/01 10:14:16;;;;;;;0.90;0.90;;;;;;;-1.48;81.19;97622.22;4956563;29;20046;-92
2022/01/01 10:16:46;;;;;;;0.90;0.90;;;;;;;-1.45;81.20;97629.75;4939697;29;20060;-91
2022/01/01 10:19:13;;;;;;;0.90;0.90;;;;;;;-1.55;79.70;97624.03;4915595;29;20052;-92
2022/01/01 10:21:42;;;;;;;0.90;0.90;;;;;;;-1.63;79.99;97625.03;4938815;29;20051;-92
2022/01/01 10:24:13;;;;;;;0.77;0.77;;;;;;;-1.56;80.17;97622.41;4937478;29;20024;-90
2022/01/01 10:29:29;;;;;;;0.90;0.90;;;;;;;-1.57;79.51;97620.78;4957506;29;20027;-92
2022/01/01 10:32:03;;;;;;;0.90;0.90;;;;;;;-1.62;79.23;97620.56;4923972;29;20052;-84
2022/01/01 10:34:47;;;;;;;0.90;0.90;;;;;;;-1.59;79.85;97628.13;4935691;29;20612;-90
2022/01/01 10:37:33;;;;;;;0.85;0.85;;;;;;;-1.61;79.82;97622.19;4933805;29;20051;-87
2022/01/01 10:40:00;;;;;;;0.90;0.90;;;;;;;-1.71;79.90;97627.88;4943913;29;20107;-87
2022/01/01 10:42:29;;;;;;;0.90;0.90;;;;;;;-1.72;80.02;97625.41;4940134;29;20573;-87
2022/01/01 10:45:02;;;;;;;0.90;0.90;;;;;;;-1.79;80.17;97622.78;4919942;29;20075;-89
2022/01/01 10:47:33;;;;;;;0.88;0.88;;;;;;;-1.70;80.41;97631.31;4921381;29;20070;-89
2022/01/01 10:53:08;;;;;;;0.80;0.80;;;;;;;-1.73;79.92;97623.78;4927847;29;20490;-90
2022/01/01 10:55:40;;;;;;;0.90;0.90;;;;;;;-1.82;79.39;97625.81;4942341;29;20048;-92
2022/01/01 10:58:07;;;;;;;0.90;0.90;;;;;;;-1.88;79.06;97627.41;4943797;29;20075;-89
2022/01/01 11:00:41;;;;;;;0.90;0.90;;;;;;;-1.98;79.37;97632.25;4936307;29;20058;-88
2022/01/01 11:03:09;;;;;;;0.90;0.90;;;;;;;-2.00;78.78;97627.19;4926565;29;20575;-92
2022/01/01 11:05:40;;;;;;;0.90;0.90;;;;;;;-1.96;78.81;97627.59;4922438;29;20504;-91
2022/01/01 11:08:08;;;;;;;0.80;0.80;;;;;;;-2.00;78.45;97631.63;4884891;29;20051;-91
2022/01/01 11:10:38;;;;;;;0.80;0.80;;;;;;;-2.04;78.05;97630.41;4932613;29;20103;-92
2022/01/01 11:13:07;;;;;;;0.90;0.90;;;;;;;-2.03;78.38;97624.09;4922189;29;20054;-93
2022/01/01 11:15:34;;;;;;;0.80;0.80;;;;;;;-2.03;78.54;97629.38;4913942;29;20044;-90
2022/01/01 11:18:06;;;;;;;0.80;0.80;;;;;;;-2.01;78.91;97630.81;4930758;29;20055;-92
2022/01/01 11:20:35;;;;;;;0.80;0.80;;;;;;;-1.99;79.22;97628.00;4930737;29;20074;-90
2022/01/01 11:23:10;;;;;;;0.90;0.90;;;;;;;-1.90;79.35;97632.09;4923069;29;20115;-87
2022/01/01 11:25:43;;;;;;;0.90;0.90;;;;;;;-1.80;79.12;97621.97;4930293;29;20055;-91
2022/01/01 11:28:16;;;;;;;0.82;0.82;;;;;;;-1.82;77.81;97623.97;4935843;29;20042;-91
2022/01/01 11:30:54;;;;;;;0.80;0.80;;;;;;;-1.86;77.96;97617.44;4952274;29;20036;-90
2022/01/01 11:33:32;;;;;;;0.82;0.82;;;;;;;-1.83;78.42;97622.34;4926891;29;20059;-92
2022/01/01 11:36:00;;;;;;;0.88;0.88;;;;;;;-1.82;78.32;97623.97;4946552;29;20080;-90
2022/01/01 11:38:29;;;;;;;0.75;0.75;;;;;;;-1.80;78.27;97627.25;4936769;29;20020;-92
2022/01/01 11:41:07;;;;;;;0.80;0.80;;;;;;;-1.83;77.91;97629.47;4928499;29;20557;-93
2022/01/01 11:43:48;;;;;;;0.90;0.90;;;;;;;-1.86;78.19;97624.56;4915765;29;20123;-92
2022/01/01 11:46:27;;;;;;;0.80;0.80;;;;;;;-1.82;78.45;97623.97;4929848;29;20044;-91
2022/01/01 11:48:58;;;;;;;0.75;0.75;;;;;;;-1.79;78.89;97615.66;4933924;29;20127;-92
2022/01/01 11:51:48;;;;;;;0.77;0.77;;;;;;;-1.78;78.57;97621.75;4948668;29;20055;-95
2022/01/01 11:54:42;;;;;;;1.00;1.00;;;;;;;-1.81;78.84;97630.88;4954494;29;20036;-90
2022/01/01 11:57:25;;;;;;;0.80;0.80;;;;;;;-1.80;79.01;97632.53;4959460;29;20027;-91
2022/01/01 12:00:10;;;;;;;0.77;0.77;;;;;;;-1.79;79.15;97631.50;4952859;29;20055;-91
2022/01/01 12:02:41;;;;;;;0.80;0.80;;;;;;;-1.78;79.15;97633.13;4927231;29;20079;-91